Time;durP1;ratioP1;P1;durP2;ratioP2;P2;SDS_P1;SDS_P2;PMS_P1;PMS_P2;Temp;Humidity;BMP_temperature;BMP_pressure;BME280_temperature;BME280_humidity;BME280_pressure;Samples;Min_cycle;Max_cycle;Signal;HPM_P1;HPM_P2
2023/05/23 00:00:56;;;;;;;6.90;3.17;;;20.10;60.60;;;;;;6181768;23;20419;-74
2023/05/23 00:03:21;;;;;;;6.25;2.92;;;20.00;60.50;;;;;;6181768;23;20051;-73
2023/05/23 00:05:48;;;;;;;4.75;2.90;;;20.00;60.60;;;;;;6180419;23;20021;-73
2023/05/23 00:08:13;;;;;;;9.25;2.72;;;20.00;60.80;;;;;;6182051;23;20001;-73
2023/05/23 00:10:39;;;;;;;4.22;2.47;;;19.90;61.10;;;;;;6182507;23;20008;-73
2023/05/23 00:13:08;;;;;;;7.45;2.80;;;19.90;61.30;;;;;;6182206;23;19997;-72
2023/05/23 00:15:37;;;;;;;6.07;3.03;;;19.90;61.30;;;;;;6182576;23;20067;-72
2023/05/23 00:18:03;;;;;;;4.55;2.90;;;19.90;61.20;;;;;;6182631;23;20461;-72
2023/05/23 00:20:29;;;;;;;6.05;3.72;;;19.90;61.30;;;;;;6181641;23;20435;-72
2023/05/23 00:22:57;;;;;;;6.05;3.03;;;19.90;61.40;;;;;;6182320;23;20371;-73
2023/05/23 00:25:23;;;;;;;5.55;3.13;;;19.90;61.40;;;;;;6155260;23;20015;-73
2023/05/23 00:27:49;;;;;;;3.75;2.70;;;19.90;61.70;;;;;;6182048;23;20009;-73
2023/05/23 00:30:15;;;;;;;4.43;2.92;;;19.80;61.60;;;;;;6182203;23;20012;-65
2023/05/23 00:32:41;;;;;;;5.30;3.22;;;19.80;61.50;;;;;;6181894;23;20302;-65
2023/05/23 00:35:07;;;;;;;8.60;3.35;;;19.80;61.70;;;;;;6181051;23;20005;-66
2023/05/23 00:37:33;;;;;;;4.25;2.70;;;19.80;61.60;;;;;;6182081;23;20419;-65
2023/05/23 00:39:59;;;;;;;4.80;2.97;;;19.70;61.60;;;;;;6181541;23;20001;-65
2023/05/23 00:42:25;;;;;;;5.05;3.17;;;19.70;61.70;;;;;;6182005;23;20036;-66
2023/05/23 00:44:50;;;;;;;5.95;3.35;;;19.60;61.70;;;;;;6181045;23;20017;-65
2023/05/23 00:47:16;;;;;;;4.32;2.90;;;19.60;61.70;;;;;;6182427;23;20120;-65
2023/05/23 00:49:42;;;;;;;6.10;3.25;;;19.60;61.70;;;;;;6181757;23;20059;-65
2023/05/23 00:52:09;;;;;;;5.70;3.10;;;19.60;61.90;;;;;;6182111;23;20084;-65
2023/05/23 00:54:35;;;;;;;5.32;2.72;;;19.60;62.00;;;;;;6181120;23;20001;-65
2023/05/23 00:57:02;;;;;;;4.00;2.75;;;19.60;62.00;;;;;;6181548;23;20044;-65
2023/05/23 00:59:29;;;;;;;5.30;3.20;;;19.50;62.10;;;;;;6181183;23;20005;-66
2023/05/23 01:01:55;;;;;;;5.57;3.38;;;19.40;62.70;;;;;;6181066;23;20379;-65
2023/05/23 01:04:25;;;;;;;5.43;2.83;;;19.50;62.50;;;;;;6181307;23;20017;-65
2023/05/23 01:06:54;;;;;;;5.82;3.25;;;19.40;62.30;;;;;;6181805;23;20048;-65
2023/05/23 01:09:22;;;;;;;4.97;2.80;;;19.30;62.40;;;;;;6180802;23;20009;-65
2023/05/23 01:12:09;;;;;;;5.18;3.03;;;19.30;62.50;;;;;;6182441;23;20012;-66
2023/05/23 01:14:47;;;;;;;5.10;3.13;;;19.30;62.60;;;;;;6154099;23;20004;-65
2023/05/23 01:17:24;;;;;;;5.68;2.80;;;19.20;62.60;;;;;;6181580;23;20009;-65
2023/05/23 01:20:07;;;;;;;4.47;2.53;;;19.20;62.80;;;;;;6181638;23;20035;-65
2023/05/23 01:23:01;;;;;;;6.32;3.67;;;19.20;62.90;;;;;;6182087;23;20439;-65
2023/05/23 01:25:32;;;;;;;4.68;3.20;;;19.20;63.00;;;;;;6180893;23;20017;-64
2023/05/23 01:28:01;;;;;;;4.53;3.10;;;19.20;62.90;;;;;;6181474;23;20001;-65
2023/05/23 01:30:30;;;;;;;4.93;2.83;;;19.20;63.20;;;;;;6153435;23;20020;-65
2023/05/23 01:32:58;;;;;;;6.43;3.42;;;19.20;63.20;;;;;;6181762;23;20009;-65
2023/05/23 01:35:25;;;;;;;7.15;3.00;;;19.20;63.30;;;;;;6181503;23;20008;-65
2023/05/23 01:37:52;;;;;;;7.10;3.47;;;19.20;63.30;;;;;;6154886;23;20724;-65
2023/05/23 01:40:18;;;;;;;5.50;3.35;;;19.20;63.30;;;;;;6181248;23;20012;-65
2023/05/23 01:42:44;;;;;;;4.18;2.45;;;19.20;63.50;;;;;;6154503;23;20088;-63
2023/05/23 01:45:11;;;;;;;5.93;3.33;;;19.20;63.30;;;;;;6181160;23;20471;-63
2023/05/23 01:47:38;;;;;;;4.13;2.70;;;19.20;63.40;;;;;;6181670;23;20012;-64
2023/05/23 01:50:05;;;;;;;4.88;3.10;;;19.20;63.60;;;;;;6180007;23;20005;-66
2023/05/23 01:52:31;;;;;;;4.68;3.17;;;19.20;63.70;;;;;;6180996;23;20004;-64
2023/05/23 01:54:58;;;;;;;5.85;3.28;;;19.20;63.60;;;;;;6178461;23;20001;-65
2023/05/23 01:57:28;;;;;;;5.05;3.20;;;19.20;63.60;;;;;;6181223;23;20037;-64
2023/05/23 01:59:53;;;;;;;5.10;3.05;;;19.20;63.90;;;;;;6153720;23;20037;-65
2023/05/23 02:02:19;;;;;;;4.97;2.60;;;19.20;63.90;;;;;;6181450;23;20012;-64
2023/05/23 02:04:44;;;;;;;5.40;3.60;;;19.20;64.00;;;;;;6181257;23;20013;-65
2023/05/23 02:07:10;;;;;;;7.13;3.53;;;19.20;64.00;;;;;;6180562;23;20367;-64
2023/05/23 02:09:36;;;;;;;8.20;3.85;;;19.10;64.10;;;;;;6180265;23;20001;-64
2023/05/23 02:12:02;;;;;;;6.65;3.13;;;19.10;64.20;;;;;;6181501;23;20240;-64
2023/05/23 02:14:28;;;;;;;4.72;3.25;;;19.20;64.50;;;;;;6180583;23;20160;-65
2023/05/23 02:16:54;;;;;;;5.80;4.05;;;19.10;64.50;;;;;;6180323;23;20081;-64
2023/05/23 02:19:19;;;;;;;5.40;3.10;;;19.10;64.40;;;;;;6180330;23;20001;-65
2023/05/23 02:21:45;;;;;;;5.30;3.70;;;19.10;65.00;;;;;;6180693;23;20343;-64
2023/05/23 02:24:10;;;;;;;7.70;3.55;;;19.10;64.60;;;;;;6180499;23;20584;-64
2023/05/23 02:26:36;;;;;;;5.03;3.10;;;19.10;64.70;;;;;;6180748;23;20012;-64
2023/05/23 02:29:02;;;;;;;5.43;3.05;;;19.10;64.60;;;;;;6180478;23;20668;-64
2023/05/23 02:31:27;;;;;;;6.53;3.55;;;19.10;64.70;;;;;;6180407;23;20067;-64
2023/05/23 02:33:53;;;;;;;4.75;3.30;;;19.10;64.80;;;;;;6180569;23;20601;-65
2023/05/23 02:36:19;;;;;;;4.68;3.13;;;19.10;64.80;;;;;;6180340;23;20013;-65
2023/05/23 02:38:45;;;;;;;10.18;3.50;;;19.10;64.90;;;;;;6179080;23;20013;-65
2023/05/23 02:41:11;;;;;;;5.22;3.33;;;19.10;64.90;;;;;;6154075;23;20088;-64
2023/05/23 02:43:37;;;;;;;4.65;3.17;;;19.10;64.90;;;;;;6179913;23;20017;-63
2023/05/23 02:46:02;;;;;;;6.63;3.35;;;19.10;64.90;;;;;;6180573;23;20412;-63
2023/05/23 02:48:28;;;;;;;4.97;3.60;;;19.10;65.00;;;;;;6179990;23;20008;-66
2023/05/23 02:50:54;;;;;;;4.05;3.03;;;19.00;65.00;;;;;;6180065;23;20012;-64
2023/05/23 02:53:21;;;;;;;6.15;3.30;;;19.00;65.00;;;;;;6181378;23;20054;-71
2023/05/23 02:55:46;;;;;;;10.88;3.17;;;19.00;65.10;;;;;;6181654;23;20013;-70
2023/05/23 02:58:12;;;;;;;6.05;3.65;;;19.00;65.20;;;;;;6179707;23;20005;-69
2023/05/23 03:00:38;;;;;;;6.35;3.40;;;18.90;65.10;;;;;;6181478;23;20035;-69
2023/05/23 03:03:04;;;;;;;7.50;3.92;;;19.00;65.20;;;;;;6180806;23;20013;-70
2023/05/23 03:05:29;;;;;;;10.05;4.13;;;19.00;65.30;;;;;;6182329;23;20088;-69
2023/05/23 03:07:56;;;;;;;8.13;4.30;;;19.00;65.30;;;;;;6182652;23;20063;-69
2023/05/23 03:10:22;;;;;;;5.68;3.58;;;18.90;65.30;;;;;;6182404;23;20017;-69
2023/05/23 03:12:47;;;;;;;6.45;3.65;;;18.90;65.40;;;;;;6156750;23;20428;-69
2023/05/23 03:15:13;;;;;;;5.70;3.70;;;19.00;65.30;;;;;;6182308;23;20009;-69
2023/05/23 03:17:38;;;;;;;5.88;3.85;;;19.00;65.70;;;;;;6182880;23;20722;-68
2023/05/23 03:20:08;;;;;;;5.18;3.55;;;19.00;65.80;;;;;;6182787;23;20016;-69
2023/05/23 03:22:34;;;;;;;7.53;3.70;;;19.00;66.10;;;;;;6181696;23;20342;-69
2023/05/23 03:25:00;;;;;;;5.80;3.88;;;19.00;66.10;;;;;;6181689;23;20428;-69
2023/05/23 03:27:25;;;;;;;4.72;3.63;;;19.00;66.10;;;;;;6182866;23;20048;-69
2023/05/23 03:29:51;;;;;;;5.60;3.35;;;19.00;66.20;;;;;;6182325;23;20021;-69
2023/05/23 03:32:17;;;;;;;5.55;3.83;;;19.00;66.10;;;;;;6183364;23;20008;-68
2023/05/23 03:34:42;;;;;;;6.75;3.55;;;19.00;66.20;;;;;;6181947;23;20063;-68
2023/05/23 03:37:11;;;;;;;8.30;3.80;;;19.00;66.40;;;;;;6182181;23;20013;-68
2023/05/23 03:39:36;;;;;;;7.95;3.95;;;19.00;66.80;;;;;;6180018;23;20332;-61
2023/05/23 03:42:02;;;;;;;5.20;3.13;;;19.00;67.00;;;;;;6179562;23;20015;-61
2023/05/23 03:44:28;;;;;;;5.82;3.65;;;19.00;67.10;;;;;;6154062;23;20028;-61
2023/05/23 03:46:53;;;;;;;5.90;3.50;;;19.00;67.10;;;;;;6180264;23;20335;-61
2023/05/23 03:49:19;;;;;;;4.57;3.30;;;19.00;67.10;;;;;;6179620;23;20404;-61
2023/05/23 03:51:45;;;;;;;7.00;4.18;;;19.00;67.30;;;;;;6181233;23;20052;-62
2023/05/23 03:54:11;;;;;;;5.60;3.85;;;18.90;67.20;;;;;;6180072;23;20016;-61
2023/05/23 03:56:36;;;;;;;6.80;3.38;;;19.00;67.40;;;;;;6180198;23;20001;-61
2023/05/23 03:59:02;;;;;;;5.85;3.50;;;19.00;67.40;;;;;;6179416;23;20063;-61
2023/05/23 04:01:28;;;;;;;6.25;4.05;;;18.90;67.30;;;;;;6180971;23;20005;-62
2023/05/23 04:03:53;;;;;;;6.03;3.97;;;18.90;67.30;;;;;;6181074;23;20016;-61
2023/05/23 04:06:19;;;;;;;6.07;3.55;;;18.90;67.40;;;;;;6180921;23;20312;-61
2023/05/23 04:08:45;;;;;;;4.53;3.33;;;18.80;67.40;;;;;;6180485;23;20009;-61
2023/05/23 04:11:11;;;;;;;4.65;3.42;;;18.80;67.50;;;;;;6181719;23;20461;-61
2023/05/23 04:13:37;;;;;;;7.13;4.25;;;18.80;67.50;;;;;;6180451;23;20078;-61
2023/05/23 04:16:04;;;;;;;5.32;3.83;;;18.70;67.60;;;;;;6181180;23;20485;-61
2023/05/23 04:18:32;;;;;;;5.72;3.92;;;18.70;67.40;;;;;;6181842;23;20025;-68
2023/05/23 04:20:58;;;;;;;6.30;3.88;;;18.70;67.40;;;;;;6182160;23;20009;-68
2023/05/23 04:23:24;;;;;;;7.93;4.22;;;18.70;67.50;;;;;;6181001;23;20279;-67
2023/05/23 04:25:50;;;;;;;9.02;3.83;;;18.70;67.50;;;;;;6182098;23;20554;-68
2023/05/23 04:28:16;;;;;;;4.88;3.17;;;18.70;68.00;;;;;;6181660;23;20001;-68
2023/05/23 04:30:42;;;;;;;5.97;4.05;;;18.70;68.20;;;;;;6180898;23;20013;-69
2023/05/23 04:33:09;;;;;;;6.82;3.80;;;18.70;68.40;;;;;;6181887;23;20350;-68
2023/05/23 04:35:37;;;;;;;8.07;4.00;;;18.70;68.30;;;;;;6182515;23;20009;-68
2023/05/23 04:38:04;;;;;;;8.57;4.35;;;18.70;68.50;;;;;;6181532;23;20023;-68
2023/05/23 04:40:30;;;;;;;5.57;3.72;;;18.80;68.60;;;;;;6180834;23;20040;-68
2023/05/23 04:42:56;;;;;;;6.78;4.50;;;18.70;68.50;;;;;;6181701;23;20231;-68
2023/05/23 04:45:21;;;;;;;6.97;3.58;;;18.80;68.90;;;;;;6153818;23;20150;-68
2023/05/23 04:47:47;;;;;;;7.85;4.07;;;18.80;69.00;;;;;;6182056;23;20013;-68
2023/05/23 04:50:13;;;;;;;6.85;3.83;;;18.80;69.20;;;;;;6154626;23;20376;-68
2023/05/23 04:52:40;;;;;;;6.18;4.03;;;18.80;69.30;;;;;;6182361;23;20009;-68
2023/05/23 04:55:07;;;;;;;6.50;3.67;;;18.80;69.30;;;;;;6181043;23;20399;-68
2023/05/23 04:57:36;;;;;;;7.82;3.97;;;18.80;69.50;;;;;;6181853;23;20005;-68
2023/05/23 05:00:09;;;;;;;8.98;4.50;;;18.80;69.70;;;;;;6179711;23;20012;-68
2023/05/23 05:02:38;;;;;;;6.32;4.03;;;18.80;70.20;;;;;;6181652;23;20005;-68
2023/05/23 05:05:04;;;;;;;7.43;4.25;;;18.80;70.30;;;;;;6180776;23;20005;-68
2023/05/23 05:07:29;;;;;;;8.02;3.83;;;18.80;70.30;;;;;;6181221;23;20420;-68
2023/05/23 05:09:56;;;;;;;6.03;3.58;;;18.80;70.30;;;;;;6181317;23;20331;-68
2023/05/23 05:12:21;;;;;;;5.72;3.92;;;18.90;70.30;;;;;;6181717;23;20029;-69
2023/05/23 05:14:47;;;;;;;6.97;3.33;;;18.90;70.60;;;;;;6181794;23;20013;-69
2023/05/23 05:17:12;;;;;;;5.60;4.35;;;18.90;70.70;;;;;;6180012;23;20009;-68
2023/05/23 05:19:38;;;;;;;8.13;4.53;;;18.90;70.60;;;;;;6179878;23;20071;-69
2023/05/23 05:22:04;;;;;;;8.15;4.18;;;18.90;70.60;;;;;;6181964;23;20016;-69
2023/05/23 05:24:31;;;;;;;11.70;4.72;;;18.90;70.90;;;;;;6181111;23;20298;-69
2023/05/23 05:26:57;;;;;;;7.25;4.38;;;18.90;70.90;;;;;;6181827;23;20013;-70
2023/05/23 05:29:22;;;;;;;12.20;4.18;;;18.90;71.20;;;;;;6181003;23;20001;-69
2023/05/23 05:31:48;;;;;;;6.20;3.42;;;18.90;71.40;;;;;;6155093;23;20013;-62
2023/05/23 05:34:14;;;;;;;11.40;4.18;;;18.90;71.80;;;;;;6180054;23;20027;-61
2023/05/23 05:36:46;;;;;;;8.30;3.95;;;18.90;72.20;;;;;;6177758;23;20055;-62
2023/05/23 05:39:13;;;;;;;8.82;4.68;;;19.00;72.50;;;;;;6180485;23;20001;-61
2023/05/23 05:41:39;;;;;;;6.45;4.15;;;18.90;73.10;;;;;;6181933;23;20037;-61
2023/05/23 05:44:06;;;;;;;6.43;3.80;;;19.00;72.70;;;;;;6181036;23;20684;-68
2023/05/23 05:46:31;;;;;;;7.97;4.05;;;19.00;72.70;;;;;;6181611;23;20079;-69
2023/05/23 05:48:57;;;;;;;7.03;4.43;;;19.00;72.80;;;;;;6180186;23;20008;-69
2023/05/23 05:51:22;;;;;;;5.43;3.90;;;19.00;72.70;;;;;;6180875;23;20580;-69
2023/05/23 05:53:48;;;;;;;7.47;3.75;;;19.00;72.60;;;;;;6180547;23;20005;-69
2023/05/23 05:56:14;;;;;;;5.70;4.00;;;19.00;72.60;;;;;;6154940;23;20044;-69
2023/05/23 05:58:40;;;;;;;5.60;3.72;;;19.00;72.80;;;;;;6181138;23;20325;-68
2023/05/23 06:01:05;;;;;;;11.75;4.18;;;19.00;73.00;;;;;;6179941;23;20013;-70
2023/05/23 06:03:32;;;;;;;6.78;4.63;;;19.00;73.10;;;;;;6179289;23;20040;-68
2023/05/23 06:05:58;;;;;;;7.00;4.15;;;19.00;73.30;;;;;;6180399;23;20012;-67
2023/05/23 06:08:24;;;;;;;7.05;3.97;;;19.00;73.50;;;;;;6181191;23;20032;-67
2023/05/23 06:10:50;;;;;;;9.20;5.03;;;19.00;73.40;;;;;;6180750;23;20474;-68
2023/05/23 06:13:15;;;;;;;6.65;4.20;;;19.00;73.60;;;;;;6181305;23;20017;-68
2023/05/23 06:15:41;;;;;;;9.55;5.25;;;19.00;73.80;;;;;;6180745;23;20031;-68
2023/05/23 06:18:06;;;;;;;5.82;4.07;;;19.10;74.10;;;;;;6180409;23;20415;-68
2023/05/23 06:20:32;;;;;;;10.98;4.60;;;19.00;74.20;;;;;;6181080;23;20088;-68
2023/05/23 06:22:59;;;;;;;7.53;3.63;;;19.10;74.30;;;;;;6180208;23;20005;-68
2023/05/23 06:25:24;;;;;;;8.63;4.45;;;19.10;74.00;;;;;;6181240;23;20021;-68
2023/05/23 06:27:50;;;;;;;9.02;4.22;;;19.10;73.80;;;;;;6179781;23;20386;-68
2023/05/23 06:30:16;;;;;;;8.23;3.97;;;19.20;73.70;;;;;;6154326;23;20012;-68
2023/05/23 06:32:41;;;;;;;7.68;4.57;;;19.20;73.90;;;;;;6180309;23;20084;-67
2023/05/23 06:35:07;;;;;;;8.15;5.03;;;19.20;73.30;;;;;;6180667;23;20032;-68
2023/05/23 06:37:33;;;;;;;7.07;4.00;;;19.20;73.20;;;;;;6178080;23;20009;-68
2023/05/23 06:39:59;;;;;;;9.40;4.43;;;19.20;73.50;;;;;;6181974;23;20024;-70
2023/05/23 06:42:25;;;;;;;24.02;5.18;;;19.30;74.00;;;;;;6179215;23;20001;-67
2023/05/23 06:44:51;;;;;;;10.65;4.47;;;19.40;74.40;;;;;;6154369;23;20028;-67
2023/05/23 06:47:16;;;;;;;12.02;4.95;;;19.40;74.30;;;;;;6182236;23;20343;-68
2023/05/23 06:49:42;;;;;;;9.88;4.68;;;19.50;74.20;;;;;;6154590;23;20072;-67
2023/05/23 06:52:07;;;;;;;8.60;4.40;;;19.60;74.20;;;;;;6180685;23;20009;-67
2023/05/23 06:54:33;;;;;;;6.57;3.97;;;19.70;74.20;;;;;;6180382;23;20005;-67
2023/05/23 06:56:59;;;;;;;11.10;5.15;;;19.80;74.10;;;;;;6182611;23;20095;-68
2023/05/23 06:59:24;;;;;;;12.18;4.70;;;19.90;73.80;;;;;;6180528;23;20005;-67
2023/05/23 07:01:50;;;;;;;12.70;4.63;;;20.10;74.10;;;;;;6181894;23;20048;-67
2023/05/23 07:04:15;;;;;;;8.40;4.82;;;20.20;74.20;;;;;;6181652;23;20484;-68
2023/05/23 07:06:41;;;;;;;8.93;4.25;;;20.40;73.80;;;;;;6182529;23;20376;-70
2023/05/23 07:09:07;;;;;;;6.72;4.47;;;20.50;73.60;;;;;;6180754;23;20497;-68
2023/05/23 07:11:34;;;;;;;8.18;4.43;;;20.60;73.40;;;;;;6181653;23;20092;-69
2023/05/23 07:13:59;;;;;;;7.95;4.97;;;20.70;72.90;;;;;;6154017;23;20009;-72
2023/05/23 07:16:25;;;;;;;9.60;4.40;;;20.80;72.40;;;;;;6154792;23;20092;-69
2023/05/23 07:18:51;;;;;;;6.53;4.03;;;20.90;72.20;;;;;;6182415;23;20009;-68
2023/05/23 07:21:16;;;;;;;16.88;4.43;;;21.00;72.20;;;;;;6181458;23;20124;-69
2023/05/23 07:23:42;;;;;;;15.52;4.47;;;21.10;71.80;;;;;;6181007;23;20009;-69
2023/05/23 07:26:08;;;;;;;9.77;4.22;;;21.30;71.60;;;;;;6180882;23;20439;-70
2023/05/23 07:28:35;;;;;;;8.88;4.78;;;21.40;71.70;;;;;;6180196;23;20072;-69
2023/05/23 07:31:01;;;;;;;6.47;4.32;;;21.40;70.80;;;;;;6180299;23;20013;-69
2023/05/23 07:33:26;;;;;;;9.52;4.75;;;21.60;70.10;;;;;;6153482;23;20076;-69
2023/05/23 07:35:52;;;;;;;5.90;3.70;;;21.70;69.90;;;;;;6181652;23;20035;-70
2023/05/23 07:38:17;;;;;;;10.80;4.30;;;21.80;69.60;;;;;;6181365;23;20008;-69
2023/05/23 07:40:43;;;;;;;11.52;4.55;;;21.90;68.80;;;;;;6180835;23;20383;-69
2023/05/23 07:43:08;;;;;;;6.00;3.80;;;22.00;68.00;;;;;;6181747;23;20001;-68
2023/05/23 07:45:34;;;;;;;11.15;4.13;;;22.10;67.80;;;;;;6179281;23;20091;-74
2023/05/23 07:48:00;;;;;;;7.00;3.63;;;22.20;67.80;;;;;;6182271;23;20020;-69
2023/05/23 07:50:26;;;;;;;8.07;4.57;;;22.30;67.70;;;;;;6182008;23;20005;-71
2023/05/23 07:52:52;;;;;;;4.97;3.40;;;22.40;67.20;;;;;;6182969;23;20079;-69
2023/05/23 07:55:18;;;;;;;5.60;3.00;;;22.40;65.90;;;;;;6181208;23;20367;-70
2023/05/23 07:57:43;;;;;;;5.95;3.80;;;22.40;66.50;;;;;;6182409;23;20012;-70
2023/05/23 08:00:11;;;;;;;6.63;3.90;;;22.50;65.90;;;;;;6181669;23;20052;-69
2023/05/23 08:02:36;;;;;;;8.35;3.90;;;22.50;66.10;;;;;;6182226;23;20335;-70
2023/05/23 08:05:02;;;;;;;9.93;4.20;;;22.50;65.90;;;;;;6180248;23;20005;-69
2023/05/23 08:07:28;;;;;;;11.85;4.10;;;22.50;65.50;;;;;;6182145;23;20028;-69
2023/05/23 08:09:53;;;;;;;9.75;3.90;;;22.50;65.70;;;;;;6180557;23;20327;-70
2023/05/23 08:12:19;;;;;;;6.18;3.15;;;22.50;65.10;;;;;;6181842;23;20104;-69
2023/05/23 08:14:45;;;;;;;8.68;3.47;;;22.60;64.90;;;;;;6177012;23;20008;-69
2023/05/23 08:17:11;;;;;;;6.13;3.25;;;22.60;64.50;;;;;;6178646;23;20009;-70
2023/05/23 08:19:37;;;;;;;5.22;3.15;;;22.60;64.50;;;;;;6182081;23;20009;-69
2023/05/23 08:22:03;;;;;;;8.82;3.95;;;22.60;64.80;;;;;;6181246;23;20769;-69
2023/05/23 08:24:29;;;;;;;7.35;3.92;;;22.60;64.70;;;;;;6180992;23;20079;-69
2023/05/23 08:26:55;;;;;;;6.97;3.85;;;22.60;64.70;;;;;;6180872;23;20017;-70
2023/05/23 08:29:21;;;;;;;9.32;3.83;;;22.70;65.40;;;;;;6180908;23;20825;-69
2023/05/23 08:31:47;;;;;;;7.22;3.40;;;22.80;65.30;;;;;;6181725;23;20008;-70
2023/05/23 08:34:13;;;;;;;5.65;3.80;;;22.90;65.10;;;;;;6180675;23;20009;-71
2023/05/23 08:36:41;;;;;;;5.85;3.83;;;22.90;65.70;;;;;;6154504;23;20012;-71
2023/05/23 08:39:06;;;;;;;5.93;3.80;;;23.00;65.20;;;;;;6181726;23;20008;-70
2023/05/23 08:41:33;;;;;;;5.93;4.05;;;23.00;65.00;;;;;;6182551;23;20013;-70
2023/05/23 08:44:00;;;;;;;5.00;3.70;;;23.00;64.90;;;;;;6175703;23;20048;-71
2023/05/23 08:46:26;;;;;;;5.28;3.53;;;23.20;65.50;;;;;;6180640;23;20107;-71
2023/05/23 08:48:57;;;;;;;6.45;3.72;;;23.20;65.20;;;;;;6180402;23;20019;-69
2023/05/23 08:51:27;;;;;;;9.77;3.63;;;23.20;65.00;;;;;;6179440;23;20005;-70
2023/05/23 08:53:54;;;;;;;6.00;3.50;;;23.10;65.00;;;;;;6178818;23;20009;-70
2023/05/23 08:56:21;;;;;;;6.85;4.25;;;23.10;65.50;;;;;;6180864;23;20020;-70
2023/05/23 08:58:47;;;;;;;4.72;3.25;;;23.20;65.60;;;;;;6180982;23;20002;-70
2023/05/23 09:01:13;;;;;;;8.18;3.95;;;23.20;65.90;;;;;;6180969;23;20005;-70
2023/05/23 09:03:41;;;;;;;5.90;3.78;;;23.30;66.40;;;;;;6181050;23;20380;-71
2023/05/23 09:06:08;;;;;;;6.85;3.92;;;23.40;66.40;;;;;;6180778;23;20083;-70
2023/05/23 09:08:35;;;;;;;7.25;3.42;;;23.40;66.50;;;;;;6180289;23;20035;-70
2023/05/23 09:11:02;;;;;;;8.57;3.75;;;23.30;66.60;;;;;;6179272;23;20009;-69
2023/05/23 09:13:30;;;;;;;7.30;4.18;;;23.30;67.00;;;;;;6180951;23;20063;-69
2023/05/23 09:16:01;;;;;;;7.90;4.15;;;23.30;67.00;;;;;;6180186;23;20028;-68
2023/05/23 09:18:37;;;;;;;5.57;3.63;;;23.10;67.40;;;;;;6152226;23;20051;-69
2023/05/23 09:21:04;;;;;;;7.95;3.63;;;23.20;67.80;;;;;;6178565;23;20005;-69
2023/05/23 09:23:30;;;;;;;12.05;4.05;;;23.30;67.90;;;;;;6178004;23;20055;-69
2023/05/23 09:26:00;;;;;;;5.25;3.70;;;23.30;68.20;;;;;;6180784;23;20013;-69
2023/05/23 09:28:25;;;;;;;5.18;3.88;;;23.40;68.40;;;;;;6181411;23;20035;-69
2023/05/23 09:31:07;;;;;;;7.10;4.18;;;23.40;68.60;;;;;;6179758;23;20013;-69
2023/05/23 09:33:39;;;;;;;5.90;4.32;;;23.50;68.80;;;;;;6180724;23;20354;-70
2023/05/23 09:36:06;;;;;;;6.72;4.07;;;23.50;69.00;;;;;;6180376;23;20019;-69
2023/05/23 09:38:36;;;;;;;9.55;4.13;;;23.50;69.20;;;;;;6180983;23;20020;-68
2023/05/23 09:41:02;;;;;;;5.00;3.30;;;23.50;69.50;;;;;;6154798;23;20005;-68
2023/05/23 09:43:28;;;;;;;5.50;4.22;;;23.50;70.00;;;;;;6180474;23;20021;-68
2023/05/23 09:45:55;;;;;;;6.38;4.10;;;23.50;70.30;;;;;;6179168;23;20439;-69
2023/05/23 09:48:28;;;;;;;5.47;4.32;;;23.70;70.70;;;;;;6180477;23;20029;-69
2023/05/23 09:50:54;;;;;;;8.73;4.00;;;23.80;70.70;;;;;;6180184;23;20008;-71
2023/05/23 09:53:21;;;;;;;7.53;4.28;;;23.90;70.70;;;;;;6153537;23;20013;-68
2023/05/23 09:55:53;;;;;;;7.90;4.38;;;24.00;70.50;;;;;;6180546;23;20015;-68
2023/05/23 09:58:22;;;;;;;8.55;3.72;;;24.10;70.40;;;;;;6180652;23;20008;-68
2023/05/23 10:00:51;;;;;;;6.88;4.68;;;24.20;70.30;;;;;;6180378;23;20009;-67
2023/05/23 10:03:22;;;;;;;7.40;4.43;;;24.20;70.40;;;;;;6180978;23;20013;-70
2023/05/23 10:06:00;;;;;;;6.15;4.07;;;24.30;70.30;;;;;;6181052;23;20012;-69
2023/05/23 10:08:32;;;;;;;6.05;3.60;;;24.30;70.20;;;;;;6180111;23;20339;-70
2023/05/23 10:11:33;;;;;;;6.43;4.13;;;24.40;70.10;;;;;;6180225;23;20005;-70
2023/05/23 10:14:05;;;;;;;4.72;3.53;;;24.40;69.80;;;;;;6177966;23;20386;-69
2023/05/23 10:16:49;;;;;;;5.38;3.60;;;24.40;69.90;;;;;;6180418;23;20019;-67
2023/05/23 10:19:22;;;;;;;6.03;3.75;;;24.40;70.10;;;;;;6181027;23;20489;-69
2023/05/23 10:21:54;;;;;;;7.30;3.72;;;24.30;70.10;;;;;;6179628;23;20068;-68
2023/05/23 10:24:21;;;;;;;6.60;3.78;;;24.30;70.20;;;;;;6181014;23;20005;-68
2023/05/23 10:26:47;;;;;;;6.95;4.38;;;24.40;70.20;;;;;;6180474;23;20431;-68
2023/05/23 10:29:13;;;;;;;6.85;4.85;;;24.40;70.20;;;;;;6180105;23;20423;-68
2023/05/23 10:31:39;;;;;;;8.60;4.93;;;24.30;70.60;;;;;;6181023;23;20005;-68
2023/05/23 10:34:32;;;;;;;7.80;4.82;;;24.20;70.90;;;;;;6180274;23;20012;-68
2023/05/23 10:37:06;;;;;;;5.53;4.20;;;24.20;71.20;;;;;;6180228;23;20029;-68
2023/05/23 10:39:37;;;;;;;6.97;5.10;;;24.20;71.50;;;;;;6153113;23;20461;-70
2023/05/23 10:42:10;;;;;;;7.25;5.43;;;24.20;71.80;;;;;;6181203;23;20507;-69
2023/05/23 10:44:36;;;;;;;7.80;5.77;;;24.10;72.20;;;;;;6180399;23;20025;-68
2023/05/23 10:47:03;;;;;;;8.05;5.10;;;24.10;72.70;;;;;;6180487;23;20256;-68
2023/05/23 10:49:45;;;;;;;7.68;5.70;;;24.10;73.10;;;;;;6179596;23;20422;-68
2023/05/23 10:52:13;;;;;;;9.18;5.13;;;24.20;73.50;;;;;;6180468;23;20002;-69
2023/05/23 10:54:47;;;;;;;8.52;6.28;;;24.20;74.00;;;;;;6179765;23;20009;-68
2023/05/23 10:57:22;;;;;;;10.45;5.18;;;24.20;74.70;;;;;;6180846;23;20013;-68
2023/05/23 10:59:50;;;;;;;8.07;5.45;;;24.30;75.30;;;;;;6180036;23;20061;-69
2023/05/23 11:02:25;;;;;;;9.43;6.57;;;24.40;75.90;;;;;;6181240;23;20039;-68
2023/05/23 11:05:23;;;;;;;9.02;5.40;;;24.40;75.90;;;;;;6180441;23;20017;-68
2023/05/23 11:08:16;;;;;;;10.02;5.80;;;24.50;75.70;;;;;;6180856;23;20556;-68
2023/05/23 11:11:01;;;;;;;9.20;5.88;;;24.50;75.80;;;;;;6152733;23;20012;-68
2023/05/23 11:13:54;;;;;;;8.65;6.05;;;24.40;76.30;;;;;;6180024;23;20013;-69
2023/05/23 11:16:39;;;;;;;7.68;5.70;;;24.40;76.40;;;;;;6163860;23;20272;-69
2023/05/23 11:19:21;;;;;;;20.05;6.38;;;24.30;76.90;;;;;;6153588;23;20096;-69
2023/05/23 11:22:01;;;;;;;8.13;6.22;;;24.30;77.10;;;;;;6153805;23;20020;-69
2023/05/23 11:24:51;;;;;;;9.55;6.70;;;24.40;77.20;;;;;;6181333;23;20059;-68
2023/05/23 11:27:37;;;;;;;9.93;7.13;;;24.40;77.00;;;;;;6182621;23;20052;-69
2023/05/23 11:30:07;;;;;;;10.75;7.18;;;24.40;76.90;;;;;;6181880;23;20009;-69
2023/05/23 11:32:33;;;;;;;18.23;8.27;;;24.30;77.10;;;;;;6182397;23;20005;-69
2023/05/23 11:35:04;;;;;;;11.27;8.27;;;24.20;77.10;;;;;;6182116;23;20117;-70
2023/05/23 11:37:31;;;;;;;10.80;8.00;;;24.10;77.20;;;;;;6181972;23;20339;-68
2023/05/23 11:39:57;;;;;;;8.93;6.60;;;24.00;77.20;;;;;;6154124;23;20331;-68
2023/05/23 11:42:23;;;;;;;11.93;7.88;;;23.90;77.50;;;;;;6182170;23;20012;-68
2023/05/23 11:44:50;;;;;;;11.38;6.80;;;23.80;77.80;;;;;;6181012;23;20021;-68
2023/05/23 11:47:16;;;;;;;9.88;7.28;;;23.80;78.20;;;;;;6182211;23;20091;-68
2023/05/23 11:49:45;;;;;;;12.13;7.43;;;23.80;78.20;;;;;;6181835;23;20012;-68
2023/05/23 11:52:11;;;;;;;11.68;7.55;;;23.70;78.20;;;;;;6182306;23;20009;-68
2023/05/23 11:54:40;;;;;;;10.57;8.00;;;23.70;78.10;;;;;;6181913;23;20059;-67
2023/05/23 11:57:06;;;;;;;12.85;8.52;;;23.60;78.40;;;;;;6181850;23;20013;-69
2023/05/23 11:59:33;;;;;;;12.38;8.38;;;23.50;78.60;;;;;;6181788;23;20120;-68
2023/05/23 12:02:01;;;;;;;10.90;7.95;;;23.40;79.30;;;;;;6182594;23;20056;-62
2023/05/23 12:04:27;;;;;;;13.02;9.38;;;23.40;79.50;;;;;;6181243;23;20004;-62
2023/05/23 12:06:52;;;;;;;15.57;9.10;;;23.40;79.80;;;;;;6181307;23;20323;-62
2023/05/23 12:09:18;;;;;;;11.27;8.70;;;23.30;79.90;;;;;;6181161;23;20420;-62
2023/05/23 12:11:47;;;;;;;13.43;9.38;;;23.30;80.40;;;;;;6181593;23;20009;-63
2023/05/23 12:14:17;;;;;;;10.73;7.93;;;23.20;80.60;;;;;;6182035;23;20435;-63
2023/05/23 12:16:46;;;;;;;15.90;9.23;;;23.20;80.80;;;;;;6181356;23;20009;-63
2023/05/23 12:19:11;;;;;;;12.90;8.90;;;23.20;80.50;;;;;;6181951;23;20020;-63
2023/05/23 12:21:55;;;;;;;11.00;8.50;;;23.20;80.60;;;;;;6181540;23;20009;-63
2023/05/23 12:24:22;;;;;;;12.60;7.60;;;23.20;80.30;;;;;;6181685;23;20028;-62
2023/05/23 12:26:53;;;;;;;11.02;8.27;;;23.30;80.50;;;;;;6181564;23;20264;-63
2023/05/23 12:29:29;;;;;;;12.60;8.15;;;23.30;80.40;;;;;;6183042;23;20338;-64
2023/05/23 12:31:57;;;;;;;12.45;8.25;;;23.30;80.40;;;;;;6182400;23;20039;-63
2023/05/23 12:34:23;;;;;;;11.23;8.43;;;23.30;80.40;;;;;;6181353;23;20036;-63
2023/05/23 12:36:50;;;;;;;11.75;7.63;;;23.30;80.10;;;;;;6180954;23;20005;-63
2023/05/23 12:39:24;;;;;;;13.55;8.38;;;23.20;80.30;;;;;;6175867;23;20088;-64
2023/05/23 12:41:50;;;;;;;17.02;9.70;;;23.10;80.80;;;;;;6173979;23;20032;-63
2023/05/23 12:44:16;;;;;;;14.20;10.13;;;23.00;80.40;;;;;;6172876;23;20027;-64
2023/05/23 12:46:42;;;;;;;12.30;8.98;;;22.90;80.80;;;;;;6173828;23;20261;-64
2023/05/23 12:49:08;;;;;;;13.55;9.43;;;22.70;80.80;;;;;;6174238;23;20055;-63